createdAt,value
2023-04-27T00:01:12.393Z,7.00
2023-04-27T00:06:17.774Z,6.32
2023-04-27T00:11:22.343Z,6.47
2023-04-27T00:16:26.388Z,6.20
2023-04-27T00:21:32.134Z,6.13
2023-04-27T00:26:36.131Z,6.43
2023-04-27T00:31:40.012Z,6.00
2023-04-27T00:36:45.581Z,5.93
2023-04-27T00:41:49.888Z,6.03
2023-04-27T00:46:54.844Z,5.82
2023-04-27T00:52:01.445Z,5.93
2023-04-27T00:57:05.360Z,7.05
2023-04-27T01:02:10.368Z,6.45
2023-04-27T01:07:17.102Z,7.78
2023-04-27T01:12:21.124Z,5.88
2023-04-27T01:17:26.264Z,6.97
2023-04-27T01:22:31.882Z,6.88
2023-04-27T01:27:37.205Z,6.47
2023-04-27T01:32:41.236Z,6.33
2023-04-27T01:37:45.419Z,6.65
2023-04-27T01:42:50.781Z,7.20
2023-04-27T01:47:55.272Z,7.05
2023-04-27T01:52:59.245Z,6.32
2023-04-27T01:58:04.661Z,6.68
2023-04-27T02:03:09.821Z,7.03
2023-04-27T02:08:13.946Z,6.90
2023-04-27T02:13:19.424Z,7.78
2023-04-27T02:18:24.454Z,7.07
2023-04-27T02:23:28.382Z,6.40
2023-04-27T02:28:34.372Z,6.78
2023-04-27T02:33:38.828Z,7.13
2023-04-27T02:38:42.737Z,7.40
2023-04-27T02:43:48.728Z,6.55
2023-04-27T02:48:52.782Z,7.43
2023-04-27T02:53:56.646Z,7.10
2023-04-27T02:59:02.186Z,7.18
2023-04-27T03:04:07.666Z,7.20
2023-04-27T03:09:12.961Z,7.43
2023-04-27T03:14:18.460Z,7.83
2023-04-27T03:19:22.425Z,7.15
2023-04-27T03:24:27.794Z,7.60
2023-04-27T03:29:33.199Z,6.93
2023-04-27T03:34:37.323Z,6.38
2023-04-27T03:39:41.892Z,6.95
2023-04-27T03:44:48.315Z,8.27
2023-04-27T03:49:52.228Z,6.85
2023-04-27T03:54:56.375Z,6.40
2023-04-27T04:00:01.778Z,6.85
2023-04-27T04:05:06.138Z,7.03
2023-04-27T04:10:12.015Z,6.68
2023-04-27T04:15:17.429Z,6.75
2023-04-27T04:20:21.668Z,7.00
2023-04-27T04:25:26.222Z,6.70
2023-04-27T04:30:32.601Z,6.88
2023-04-27T04:35:42.048Z,6.65
2023-04-27T04:40:50.727Z,7.03
2023-04-27T04:46:00.070Z,6.60
2023-04-27T04:51:08.508Z,6.57
2023-04-27T04:56:17.521Z,7.35
2023-04-27T05:01:25.469Z,6.57
2023-04-27T05:06:32.892Z,7.32
2023-04-27T05:11:40.125Z,8.48
2023-04-27T05:16:48.580Z,6.63
2023-04-27T05:21:52.709Z,7.20
2023-04-27T05:26:56.800Z,7.07
2023-04-27T05:32:02.159Z,6.88
2023-04-27T05:37:06.112Z,7.22
2023-04-27T05:42:09.985Z,7.30
2023-04-27T05:47:15.230Z,7.57
2023-04-27T05:52:19.232Z,7.30
2023-04-27T05:57:23.334Z,7.13
2023-04-27T06:02:28.972Z,6.90
2023-04-27T06:07:33.859Z,6.95
2023-04-27T06:12:38.194Z,7.93
2023-04-27T06:17:44.562Z,7.10
2023-04-27T06:22:48.582Z,7.28
2023-04-27T06:27:52.598Z,7.07
2023-04-27T06:32:57.987Z,7.45
2023-04-27T06:38:02.044Z,6.47
2023-04-27T06:43:06.242Z,5.63
2023-04-27T06:48:12.066Z,6.00
2023-04-27T06:53:17.406Z,6.22
2023-04-27T06:58:22.244Z,5.53
2023-04-27T07:03:27.907Z,6.43
2023-04-27T07:08:31.864Z,7.38
2023-04-27T07:13:35.935Z,5.50
2023-04-27T07:18:43.312Z,5.75
2023-04-27T07:23:47.607Z,6.00
2023-04-27T07:28:52.038Z,5.93
2023-04-27T07:33:58.157Z,4.20
2023-04-27T07:39:02.400Z,6.85
2023-04-27T07:44:06.549Z,6.53
2023-04-27T07:49:13.962Z,8.43
2023-04-27T07:54:18.116Z,8.07
2023-04-27T07:59:22.282Z,7.75
2023-04-27T08:04:27.948Z,6.63
2023-04-27T08:09:32.473Z,8.23
2023-04-27T08:14:37.718Z,6.82
2023-04-27T08:19:43.332Z,7.35
2023-04-27T08:24:47.290Z,6.70
2023-04-27T08:29:51.674Z,6.88
2023-04-27T08:34:59.540Z,6.30
2023-04-27T08:40:06.955Z,4.88
2023-04-27T08:45:11.502Z,4.65
2023-04-27T08:50:17.008Z,4.00
2023-04-27T08:55:21.310Z,4.25
2023-04-27T09:00:28.891Z,4.32
2023-04-27T09:05:34.456Z,3.63
2023-04-27T09:10:46.122Z,4.00
2023-04-27T09:15:52.702Z,4.00
2023-04-27T09:20:58.041Z,3.90
2023-04-27T09:26:03.798Z,4.85
2023-04-27T09:36:15.567Z,3.93
2023-04-27T09:46:26.022Z,3.65
2023-04-27T09:51:31.987Z,3.00
2023-04-27T09:56:54.869Z,2.67
2023-04-27T10:02:09.978Z,3.17
2023-04-27T10:07:23.709Z,3.08
2023-04-27T10:12:29.759Z,2.95
2023-04-27T10:17:35.471Z,3.30
2023-04-27T10:27:49.770Z,3.60
2023-04-27T10:32:55.773Z,3.65
2023-04-27T10:43:14.392Z,2.97
2023-04-27T10:48:18.637Z,3.08
2023-04-27T10:53:24.005Z,2.53
2023-04-27T10:58:37.647Z,2.58
2023-04-27T11:03:49.071Z,2.50
2023-04-27T11:08:54.931Z,2.70
2023-04-27T11:13:59.571Z,3.20
2023-04-27T11:19:06.902Z,3.67
2023-04-27T11:24:15.183Z,2.78
2023-04-27T11:29:19.701Z,2.58
2023-04-27T11:34:26.529Z,2.95
2023-04-27T11:39:35.338Z,4.00
2023-04-27T11:44:40.589Z,3.38
2023-04-27T11:49:48.354Z,3.17
2023-04-27T11:54:56.609Z,3.20
2023-04-27T12:00:11.302Z,3.00
2023-04-27T12:05:19.936Z,2.67
2023-04-27T12:10:26.085Z,3.03
2023-04-27T12:20:33.862Z,2.60
2023-04-27T12:25:41.182Z,2.65
2023-04-27T12:30:45.669Z,3.00
2023-04-27T12:35:49.866Z,2.70
2023-04-27T12:40:55.286Z,2.80
2023-04-27T12:45:59.315Z,2.67
2023-04-27T12:51:03.573Z,2.65
2023-04-27T12:56:09.312Z,3.33
2023-04-27T13:01:15.633Z,3.03
2023-04-27T13:06:20.042Z,3.63
2023-04-27T13:11:25.627Z,2.95
2023-04-27T13:16:29.719Z,3.13
2023-04-27T13:21:34.345Z,3.35
2023-04-27T13:26:39.682Z,3.65
2023-04-27T13:31:43.774Z,3.63
2023-04-27T13:36:49.441Z,3.20
2023-04-27T13:46:59.020Z,3.55
2023-04-27T13:52:03.138Z,3.78
2023-04-27T13:57:08.457Z,3.78
2023-04-27T14:02:12.531Z,4.05
2023-04-27T14:07:16.867Z,2.97
2023-04-27T14:12:22.314Z,3.50
2023-04-27T14:17:26.858Z,3.42
2023-04-27T14:22:31.560Z,3.55
2023-04-27T14:27:37.165Z,3.85
2023-04-27T14:32:41.859Z,3.30
2023-04-27T14:37:45.750Z,3.25
2023-04-27T14:42:51.140Z,3.60
2023-04-27T14:47:55.388Z,4.13
2023-04-27T14:52:59.453Z,4.00
2023-04-27T14:58:05.036Z,3.85
2023-04-27T15:03:09.418Z,3.45
2023-04-27T15:08:13.541Z,3.72
2023-04-27T15:13:18.824Z,3.60
2023-04-27T15:18:22.933Z,4.25
2023-04-27T15:23:28.363Z,3.63
2023-04-27T15:28:34.726Z,4.05
2023-04-27T15:33:38.679Z,3.17
2023-04-27T15:38:42.673Z,4.50
2023-04-27T15:43:48.126Z,3.88
2023-04-27T15:48:52.269Z,4.15
2023-04-27T15:53:56.215Z,4.60
2023-04-27T15:59:01.567Z,5.00
2023-04-27T16:04:06.399Z,4.60
2023-04-27T16:09:11.729Z,5.07
2023-04-27T16:14:17.145Z,4.47
2023-04-27T16:19:21.298Z,3.90
2023-04-27T16:24:26.934Z,4.85
2023-04-27T16:29:32.344Z,4.70
2023-04-27T16:34:37.298Z,6.43
2023-04-27T16:39:41.414Z,5.33
2023-04-27T16:44:47.087Z,5.75
2023-04-27T16:49:51.357Z,4.38
2023-04-27T16:54:55.544Z,5.15
2023-04-27T17:00:02.095Z,5.10
2023-04-27T17:05:07.103Z,5.15
2023-04-27T17:10:11.493Z,5.82
2023-04-27T17:15:18.254Z,6.28
2023-04-27T17:20:22.418Z,6.28
2023-04-27T17:25:26.848Z,12.38
2023-04-27T17:30:32.288Z,9.10
2023-04-27T17:35:36.400Z,9.43
2023-04-27T17:40:40.442Z,8.52
2023-04-27T17:45:45.781Z,8.18
2023-04-27T17:50:49.884Z,8.00
2023-04-27T17:55:54.108Z,7.85
2023-04-27T18:00:59.552Z,6.53
2023-04-27T18:06:12.611Z,7.80
2023-04-27T18:11:16.825Z,9.25
2023-04-27T18:16:22.262Z,9.02
2023-04-27T18:21:27.926Z,9.07
2023-04-27T18:26:32.120Z,3.92
2023-04-27T18:31:38.127Z,3.92
2023-04-27T18:36:42.320Z,9.90
2023-04-27T18:41:46.298Z,15.10
2023-04-27T18:46:51.923Z,29.67
2023-04-27T18:51:55.870Z,59.50
2023-04-27T18:57:00.230Z,75.75
2023-04-27T19:02:05.600Z,22.38
2023-04-27T19:07:09.688Z,22.52
2023-04-27T19:12:13.733Z,20.67
2023-04-27T19:17:19.409Z,16.40
2023-04-27T19:22:23.475Z,18.10
2023-04-27T19:27:27.568Z,21.08
2023-04-27T19:32:34.383Z,17.55
2023-04-27T19:37:38.586Z,17.38
2023-04-27T19:42:42.599Z,17.60
2023-04-27T19:47:48.757Z,17.35
2023-04-27T19:52:52.770Z,14.38
2023-04-27T19:57:56.814Z,15.88
2023-04-27T20:03:02.370Z,16.80
2023-04-27T20:08:06.547Z,16.65
2023-04-27T20:13:10.935Z,19.45
2023-04-27T20:18:16.350Z,20.83
2023-04-27T20:23:20.237Z,23.50
2023-04-27T20:28:24.481Z,21.08
2023-04-27T20:33:29.876Z,17.58
2023-04-27T20:38:33.814Z,14.63
2023-04-27T20:43:39.876Z,20.48
2023-04-27T20:48:46.311Z,20.92
2023-04-27T20:53:50.290Z,19.00
2023-04-27T20:58:54.388Z,17.55
2023-04-27T21:04:00.264Z,21.35
2023-04-27T21:09:04.232Z,16.85
2023-04-27T21:14:08.357Z,18.23
2023-04-27T21:19:16.262Z,14.35
2023-04-27T21:24:20.424Z,12.65
2023-04-27T21:29:24.420Z,13.30
2023-04-27T21:34:29.722Z,12.35
2023-04-27T21:39:33.638Z,18.48
2023-04-27T21:44:38.264Z,15.75
2023-04-27T21:49:43.589Z,16.25
2023-04-27T21:54:47.453Z,19.50
2023-04-27T21:59:51.383Z,21.05
2023-04-27T22:04:56.822Z,17.20
2023-04-27T22:10:00.816Z,15.88
2023-04-27T22:15:05.234Z,13.65
2023-04-27T22:20:12.720Z,14.25
2023-04-27T22:25:17.233Z,13.20
2023-04-27T22:30:21.126Z,66.10
2023-04-27T22:35:27.805Z,79.45
2023-04-27T22:40:32.072Z,43.58
2023-04-27T22:45:38.147Z,32.70
2023-04-27T22:50:44.251Z,36.30
2023-04-27T22:55:48.148Z,26.65
2023-04-27T23:00:52.084Z,21.58
2023-04-27T23:05:57.779Z,26.20
2023-04-27T23:11:02.828Z,36.25
2023-04-27T23:16:07.930Z,58.75
2023-04-27T23:21:13.600Z,30.33
2023-04-27T23:26:17.984Z,24.30
2023-04-27T23:31:23.651Z,25.10
2023-04-27T23:36:29.501Z,27.70
2023-04-27T23:41:33.350Z,24.05
2023-04-27T23:46:37.585Z,24.77
2023-04-27T23:51:42.843Z,25.48
2023-04-27T23:56:47.296Z,22.83
